createdAt,value
2023-01-28T00:01:55.637Z,11.52
2023-01-28T00:04:22.538Z,11.25
2023-01-28T00:06:49.404Z,11.88
2023-01-28T00:09:16.347Z,12.20
2023-01-28T00:11:43.510Z,9.93
2023-01-28T00:14:12.365Z,12.40
2023-01-28T00:16:39.393Z,12.57
2023-01-28T00:19:06.222Z,11.23
2023-01-28T00:21:33.130Z,10.93
2023-01-28T00:24:00.057Z,9.70
2023-01-28T00:26:26.995Z,10.95
2023-01-28T00:28:54.258Z,10.30
2023-01-28T00:31:27.224Z,10.77
2023-01-28T00:33:55.228Z,11.75
2023-01-28T00:36:24.126Z,10.50
2023-01-28T00:38:56.212Z,10.43
2023-01-28T00:41:24.868Z,9.82
2023-01-28T00:43:52.695Z,12.95
2023-01-28T00:46:20.704Z,10.13
2023-01-28T00:48:48.710Z,9.23
2023-01-28T00:51:17.891Z,11.38
2023-01-28T00:53:47.726Z,10.15
2023-01-28T00:56:17.010Z,11.27
2023-01-28T00:58:44.578Z,10.57
2023-01-28T01:01:15.099Z,11.70
2023-01-28T01:03:43.444Z,12.38
2023-01-28T01:06:12.184Z,10.77
2023-01-28T01:08:42.915Z,9.27
2023-01-28T01:11:11.909Z,12.17
2023-01-28T01:13:38.817Z,9.40
2023-01-28T01:16:09.691Z,10.05
2023-01-28T01:18:37.986Z,9.50
2023-01-28T01:21:12.475Z,11.15
2023-01-28T01:23:39.764Z,9.05
2023-01-28T01:26:07.593Z,12.20
2023-01-28T01:28:35.189Z,11.23
2023-01-28T01:31:07.664Z,11.02
2023-01-28T01:33:35.206Z,10.45
2023-01-28T01:36:02.452Z,10.07
2023-01-28T01:38:29.768Z,9.50
2023-01-28T01:40:59.143Z,11.32
2023-01-28T01:43:54.453Z,10.40
2023-01-28T01:46:37.518Z,12.02
2023-01-28T01:49:25.654Z,10.23
2023-01-28T01:52:00.771Z,10.57
2023-01-28T01:54:30.050Z,11.25
2023-01-28T01:56:59.010Z,11.68
2023-01-28T01:59:29.800Z,12.77
2023-01-28T02:02:01.379Z,14.77
2023-01-28T02:04:35.557Z,10.77
2023-01-28T02:07:02.724Z,11.73
2023-01-28T02:09:31.899Z,13.10
2023-01-28T02:12:05.892Z,11.98
2023-01-28T02:14:35.719Z,10.35
2023-01-28T02:17:03.348Z,12.52
2023-01-28T02:19:53.141Z,11.75
2023-01-28T02:22:49.617Z,12.10
2023-01-28T02:25:41.687Z,12.82
2023-01-28T02:28:37.413Z,12.82
2023-01-28T02:31:17.890Z,9.57
2023-01-28T02:34:21.008Z,10.07
2023-01-28T02:36:57.855Z,12.63
2023-01-28T02:39:33.273Z,10.55
2023-01-28T02:42:06.433Z,11.32
2023-01-28T02:44:33.867Z,11.95
2023-01-28T02:47:19.467Z,11.05
2023-01-28T02:49:56.160Z,10.30
2023-01-28T02:53:08.741Z,12.00
2023-01-28T02:55:44.374Z,11.45
2023-01-28T02:58:37.901Z,10.85
2023-01-28T03:01:34.117Z,11.95
2023-01-28T03:04:22.528Z,11.18
2023-01-28T03:06:54.089Z,9.52
2023-01-28T03:09:24.632Z,15.02
2023-01-28T03:12:25.710Z,8.90
2023-01-28T03:15:23.155Z,10.25
2023-01-28T03:18:37.853Z,9.10
2023-01-28T03:21:50.918Z,9.82
2023-01-28T03:24:42.720Z,9.55
2023-01-28T03:27:59.211Z,9.85
2023-01-28T03:31:28.237Z,9.27
2023-01-28T03:34:18.504Z,9.90
2023-01-28T03:36:53.459Z,12.65
2023-01-28T03:39:46.491Z,9.73
2023-01-28T03:42:15.172Z,11.55
2023-01-28T03:45:14.717Z,12.50
2023-01-28T03:47:43.256Z,10.20
2023-01-28T03:50:12.012Z,10.68
2023-01-28T03:52:48.595Z,9.95
2023-01-28T03:55:35.660Z,10.73
2023-01-28T03:58:02.518Z,9.27
2023-01-28T04:00:29.534Z,10.75
2023-01-28T04:02:56.809Z,10.30
2023-01-28T04:05:25.456Z,11.82
2023-01-28T04:07:56.971Z,11.52
2023-01-28T04:10:34.191Z,12.73
2023-01-28T04:13:18.431Z,14.00
2023-01-28T04:15:45.881Z,11.82
2023-01-28T04:18:15.101Z,12.05
2023-01-28T04:20:42.841Z,11.68
2023-01-28T04:23:09.747Z,10.52
2023-01-28T04:25:36.653Z,13.20
2023-01-28T04:28:06.773Z,15.45
2023-01-28T04:30:34.568Z,12.38
2023-01-28T04:33:14.657Z,14.10
2023-01-28T04:36:07.946Z,14.07
2023-01-28T04:39:02.679Z,15.85
2023-01-28T04:41:48.374Z,15.85
2023-01-28T04:44:24.335Z,13.10
2023-01-28T04:47:01.560Z,13.73
2023-01-28T04:49:47.217Z,14.52
2023-01-28T04:52:26.139Z,15.82
2023-01-28T04:55:18.987Z,11.38
2023-01-28T04:57:48.673Z,11.48
2023-01-28T05:00:16.073Z,12.60
2023-01-28T05:02:42.970Z,11.52
2023-01-28T05:05:10.192Z,13.30
2023-01-28T05:07:58.982Z,12.27
2023-01-28T05:10:27.715Z,12.15
2023-01-28T05:12:55.208Z,14.35
2023-01-28T05:15:22.575Z,12.20
2023-01-28T05:17:56.608Z,13.93
2023-01-28T05:20:24.210Z,11.82
2023-01-28T05:22:51.516Z,11.93
2023-01-28T05:25:22.545Z,13.52
2023-01-28T05:27:52.241Z,13.95
2023-01-28T05:30:20.812Z,13.57
2023-01-28T05:32:48.126Z,13.25
2023-01-28T05:35:18.274Z,13.40
2023-01-28T05:37:45.254Z,14.18
2023-01-28T05:40:13.109Z,14.10
2023-01-28T05:42:40.210Z,13.52
2023-01-28T05:48:20.420Z,15.32
2023-01-28T05:51:05.521Z,12.77
2023-01-28T05:53:37.319Z,13.98
2023-01-28T05:56:04.439Z,15.73
2023-01-28T05:58:33.006Z,13.63
2023-01-28T06:01:02.986Z,14.98
2023-01-28T06:03:38.659Z,16.52
2023-01-28T06:06:06.073Z,13.38
2023-01-28T06:08:32.902Z,12.90
2023-01-28T06:11:00.279Z,13.90
2023-01-28T06:13:32.300Z,14.95
2023-01-28T06:16:17.809Z,14.00
2023-01-28T06:19:10.507Z,12.95
2023-01-28T06:21:38.143Z,13.43
2023-01-28T06:24:05.245Z,14.15
2023-01-28T06:26:32.110Z,13.15
2023-01-28T06:28:58.982Z,16.50
2023-01-28T06:31:25.788Z,14.50
2023-01-28T06:33:52.677Z,14.00
2023-01-28T06:36:19.604Z,14.48
2023-01-28T06:38:46.905Z,14.52
2023-01-28T06:41:13.796Z,15.88
2023-01-28T06:43:40.726Z,14.02
2023-01-28T06:46:07.662Z,15.52
2023-01-28T06:48:34.624Z,15.60
2023-01-28T06:51:01.463Z,13.77
2023-01-28T06:53:28.522Z,13.80
2023-01-28T06:55:55.446Z,13.93
2023-01-28T06:58:22.380Z,15.50
2023-01-28T07:00:49.351Z,13.93
2023-01-28T07:03:16.520Z,14.45
2023-01-28T07:05:43.393Z,17.40
2023-01-28T07:08:10.235Z,15.50
2023-01-28T07:10:37.078Z,15.75
2023-01-28T07:13:04.059Z,15.05
2023-01-28T07:15:30.903Z,12.55
2023-01-28T07:17:58.677Z,16.17
2023-01-28T07:20:26.250Z,13.25
2023-01-28T07:22:53.106Z,15.35
2023-01-28T07:25:20.263Z,15.18
2023-01-28T07:27:54.117Z,15.45
2023-01-28T07:30:21.907Z,16.08
2023-01-28T07:32:53.904Z,13.30
2023-01-28T07:35:20.774Z,15.52
2023-01-28T07:37:57.966Z,14.23
2023-01-28T07:40:26.060Z,15.25
2023-01-28T07:42:55.247Z,15.75
2023-01-28T07:45:25.808Z,15.23
2023-01-28T07:47:57.540Z,13.70
2023-01-28T07:50:25.140Z,16.98
2023-01-28T07:52:52.115Z,15.32
2023-01-28T07:55:18.960Z,14.40
2023-01-28T07:57:53.908Z,15.60
2023-01-28T08:00:22.744Z,14.10
2023-01-28T08:02:50.304Z,15.80
2023-01-28T08:05:19.358Z,15.48
2023-01-28T08:07:48.476Z,16.67
2023-01-28T08:10:17.655Z,14.60
2023-01-28T08:12:55.113Z,16.00
2023-01-28T08:15:22.937Z,14.95
2023-01-28T08:17:49.777Z,14.32
2023-01-28T08:20:17.387Z,16.60
2023-01-28T08:22:44.433Z,14.55
2023-01-28T08:25:11.233Z,14.02
2023-01-28T08:27:38.042Z,14.35
2023-01-28T08:30:05.770Z,15.52
2023-01-28T08:32:32.939Z,16.25
2023-01-28T08:34:59.829Z,15.73
2023-01-28T08:37:26.690Z,15.20
2023-01-28T08:39:53.517Z,16.63
2023-01-28T08:42:20.324Z,15.35
2023-01-28T08:44:48.183Z,13.70
2023-01-28T08:47:15.685Z,14.55
2023-01-28T08:49:42.471Z,12.98
2023-01-28T08:52:09.333Z,17.27
2023-01-28T08:54:36.618Z,14.38
2023-01-28T08:57:04.035Z,14.52
2023-01-28T08:59:31.131Z,13.90
2023-01-28T09:01:58.261Z,16.45
2023-01-28T09:04:25.153Z,13.95
2023-01-28T09:06:51.995Z,15.27
2023-01-28T09:09:18.959Z,14.95
2023-01-28T09:11:45.792Z,14.02
2023-01-28T09:14:12.853Z,13.15
2023-01-28T09:16:39.605Z,14.70
2023-01-28T09:19:06.346Z,13.68
2023-01-28T09:21:33.154Z,17.98
2023-01-28T09:23:59.979Z,14.07
2023-01-28T09:26:26.856Z,14.65
2023-01-28T09:28:53.741Z,13.68
2023-01-28T09:31:20.715Z,14.85
2023-01-28T09:33:47.767Z,13.93
2023-01-28T09:36:14.584Z,15.18
2023-01-28T09:38:41.414Z,15.45
2023-01-28T09:41:24.848Z,15.20
2023-01-28T09:44:17.724Z,14.18
2023-01-28T09:46:45.782Z,14.07
2023-01-28T09:49:21.079Z,14.63
2023-01-28T09:51:53.559Z,14.52
2023-01-28T09:54:42.131Z,15.52
2023-01-28T09:57:23.560Z,15.85
2023-01-28T09:59:51.028Z,14.98
2023-01-28T10:02:37.151Z,19.70
2023-01-28T10:05:25.585Z,15.77
2023-01-28T10:08:16.453Z,14.73
2023-01-28T10:10:58.892Z,18.10
2023-01-28T10:14:09.524Z,13.57
2023-01-28T10:16:46.743Z,14.07
2023-01-28T10:19:23.284Z,13.75
2023-01-28T10:22:02.952Z,15.38
2023-01-28T10:24:51.215Z,14.68
2023-01-28T10:27:22.504Z,17.08
2023-01-28T10:29:50.760Z,15.70
2023-01-28T10:32:23.633Z,15.88
2023-01-28T10:37:18.864Z,18.88
2023-01-28T10:39:46.159Z,17.08
2023-01-28T10:42:20.640Z,17.40
2023-01-28T10:44:49.140Z,16.48
2023-01-28T10:47:29.865Z,18.23
2023-01-28T10:49:59.842Z,17.42
2023-01-28T10:52:26.802Z,26.70
2023-01-28T10:55:04.952Z,23.65
2023-01-28T10:57:34.556Z,17.25
2023-01-28T11:00:37.642Z,16.23
2023-01-28T11:03:04.601Z,23.60
2023-01-28T11:05:32.005Z,19.15
2023-01-28T11:08:12.320Z,19.48
2023-01-28T11:10:40.396Z,18.50
2023-01-28T11:13:17.015Z,16.08
2023-01-28T11:15:53.514Z,16.13
2023-01-28T11:18:28.589Z,18.63
2023-01-28T11:20:58.686Z,16.60
2023-01-28T11:23:29.664Z,18.27
2023-01-28T11:26:09.252Z,18.98
2023-01-28T11:28:41.702Z,17.67
2023-01-28T11:31:10.418Z,19.27
2023-01-28T11:33:39.851Z,17.52
2023-01-28T11:36:18.119Z,21.50
2023-01-28T11:38:56.532Z,18.42
2023-01-28T11:41:33.281Z,18.35
2023-01-28T11:44:13.572Z,19.23
2023-01-28T11:46:46.184Z,19.70
2023-01-28T11:49:18.761Z,19.95
2023-01-28T11:52:09.931Z,18.67
2023-01-28T11:54:54.963Z,19.05
2023-01-28T11:57:27.207Z,20.73
2023-01-28T12:00:02.672Z,15.18
2023-01-28T12:02:48.646Z,19.45
2023-01-28T12:05:40.223Z,19.10
2023-01-28T12:08:18.833Z,18.67
2023-01-28T12:11:14.844Z,18.65
2023-01-28T12:14:14.587Z,18.65
2023-01-28T12:16:53.807Z,18.90
2023-01-28T12:19:30.727Z,20.50
2023-01-28T12:22:20.196Z,19.77
2023-01-28T12:25:11.672Z,16.95
2023-01-28T12:27:52.460Z,20.20
2023-01-28T12:30:32.254Z,20.33
2023-01-28T12:33:02.116Z,19.05
2023-01-28T12:35:44.773Z,20.85
2023-01-28T12:38:23.870Z,23.55
2023-01-28T12:40:57.772Z,20.50
2023-01-28T12:43:46.098Z,20.02
2023-01-28T12:46:19.208Z,19.75
2023-01-28T12:49:21.313Z,20.52
2023-01-28T12:52:09.944Z,19.35
2023-01-28T12:55:00.018Z,21.67
2023-01-28T12:57:29.969Z,19.67
2023-01-28T13:00:15.367Z,20.00
2023-01-28T13:03:05.459Z,21.60
2023-01-28T13:05:38.255Z,21.75
2023-01-28T13:10:42.196Z,20.88
2023-01-28T13:13:20.009Z,18.83
2023-01-28T13:15:47.288Z,20.83
2023-01-28T13:18:40.269Z,24.15
2023-01-28T13:21:23.933Z,21.63
2023-01-28T13:24:04.099Z,21.33
2023-01-28T13:26:44.345Z,21.35
2023-01-28T13:29:22.390Z,20.42
2023-01-28T13:31:55.730Z,19.08
2023-01-28T13:34:44.124Z,22.23
2023-01-28T13:37:33.888Z,20.45
2023-01-28T13:40:09.658Z,24.33
2023-01-28T13:42:37.482Z,20.08
2023-01-28T13:45:16.879Z,21.25
2023-01-28T13:47:51.414Z,19.17
2023-01-28T13:50:25.719Z,23.02
2023-01-28T13:52:58.220Z,20.15
2023-01-28T13:55:43.630Z,17.50
2023-01-28T13:58:20.627Z,16.13
2023-01-28T14:01:15.288Z,19.42
2023-01-28T14:04:19.759Z,16.25
2023-01-28T14:06:46.566Z,14.15
2023-01-28T14:09:20.282Z,15.45
2023-01-28T14:11:47.247Z,14.45
2023-01-28T14:14:42.188Z,14.95
2023-01-28T14:17:26.754Z,12.70
2023-01-28T14:19:55.003Z,11.70
2023-01-28T14:22:22.268Z,11.55
2023-01-28T14:24:49.839Z,11.40
2023-01-28T14:27:28.250Z,13.15
2023-01-28T14:30:24.270Z,10.57
2023-01-28T14:32:53.897Z,14.85
2023-01-28T14:35:25.912Z,14.05
2023-01-28T14:37:52.850Z,11.38
2023-01-28T14:40:21.032Z,13.45
2023-01-28T14:42:52.239Z,13.63
2023-01-28T14:45:54.621Z,13.40
2023-01-28T14:48:38.396Z,13.02
2023-01-28T14:51:23.569Z,14.73
2023-01-28T14:54:08.932Z,12.82
2023-01-28T14:57:03.002Z,16.55
2023-01-28T14:59:41.768Z,17.23
2023-01-28T15:02:24.017Z,14.75
2023-01-28T15:04:52.151Z,14.90
2023-01-28T15:07:27.315Z,13.90
2023-01-28T15:10:15.059Z,13.45
2023-01-28T15:12:44.658Z,15.52
2023-01-28T15:15:29.323Z,16.90
2023-01-28T15:18:03.037Z,16.30
2023-01-28T15:20:30.672Z,14.60
2023-01-28T15:22:57.816Z,16.35
2023-01-28T15:25:29.178Z,15.20
2023-01-28T15:28:05.173Z,13.73
2023-01-28T15:30:32.994Z,15.18
2023-01-28T15:33:06.200Z,17.15
2023-01-28T15:35:33.603Z,15.45
2023-01-28T15:38:00.472Z,16.17
2023-01-28T15:40:30.378Z,17.40
2023-01-28T15:42:59.046Z,13.27
2023-01-28T15:45:29.551Z,23.05
2023-01-28T15:48:05.880Z,14.77
2023-01-28T15:50:35.386Z,14.50
2023-01-28T15:53:02.432Z,15.48
2023-01-28T15:55:35.784Z,14.07
2023-01-28T15:58:19.454Z,14.63
2023-01-28T16:00:48.433Z,17.00
2023-01-28T16:03:22.115Z,17.83
2023-01-28T16:06:04.527Z,11.30
2023-01-28T16:08:54.347Z,11.25
2023-01-28T16:11:24.034Z,10.43
2023-01-28T16:13:51.288Z,12.15
2023-01-28T16:16:36.938Z,10.52
2023-01-28T16:19:06.804Z,15.00
2023-01-28T16:21:45.653Z,12.48
2023-01-28T16:24:54.473Z,11.90
2023-01-28T16:27:27.462Z,12.55
2023-01-28T16:29:54.424Z,12.13
2023-01-28T16:32:33.301Z,11.63
2023-01-28T16:35:01.138Z,10.93
2023-01-28T16:37:28.077Z,14.27
2023-01-28T16:39:55.054Z,12.02
2023-01-28T16:42:22.007Z,10.88
2023-01-28T16:44:48.836Z,13.23
2023-01-28T16:47:15.870Z,13.13
2023-01-28T16:49:42.775Z,12.68
2023-01-28T16:52:12.183Z,11.05
2023-01-28T16:54:45.571Z,9.13
2023-01-28T16:57:20.673Z,11.15
2023-01-28T16:59:47.624Z,11.18
2023-01-28T17:02:19.848Z,10.10
2023-01-28T17:04:49.907Z,12.80
2023-01-28T17:07:16.716Z,10.60
2023-01-28T17:09:43.585Z,9.35
2023-01-28T17:12:10.439Z,10.13
2023-01-28T17:14:38.864Z,14.15
2023-01-28T17:17:05.841Z,9.88
2023-01-28T17:19:32.704Z,15.30
2023-01-28T17:21:59.719Z,14.43
2023-01-28T17:24:29.128Z,11.55
2023-01-28T17:26:58.703Z,16.15
2023-01-28T17:29:25.835Z,13.27
2023-01-28T17:31:52.724Z,16.88
2023-01-28T17:34:19.668Z,15.85
2023-01-28T17:36:46.578Z,17.48
2023-01-28T17:39:13.580Z,9.63
2023-01-28T17:41:40.360Z,12.18
2023-01-28T17:44:07.532Z,11.98
2023-01-28T17:46:35.896Z,12.20
2023-01-28T17:49:03.113Z,13.70
2023-01-28T17:51:30.005Z,11.45
2023-01-28T17:53:57.048Z,12.23
2023-01-28T17:56:28.093Z,10.32
2023-01-28T17:58:57.383Z,12.38
2023-01-28T18:01:26.343Z,11.88
2023-01-28T18:03:54.057Z,10.65
2023-01-28T18:06:21.194Z,16.27
2023-01-28T18:08:48.351Z,14.07
2023-01-28T18:11:17.483Z,11.27
2023-01-28T18:13:45.835Z,10.85
2023-01-28T18:16:18.120Z,10.32
2023-01-28T18:18:45.854Z,10.98
2023-01-28T18:21:52.579Z,10.50
2023-01-28T18:24:21.007Z,12.25
2023-01-28T18:26:48.037Z,14.25
2023-01-28T18:29:19.006Z,17.08
2023-01-28T18:31:47.932Z,18.75
2023-01-28T18:34:15.072Z,15.32
2023-01-28T18:36:45.179Z,14.02
2023-01-28T18:39:13.421Z,17.65
2023-01-28T18:41:40.778Z,14.02
2023-01-28T18:44:12.038Z,13.55
2023-01-28T18:46:38.982Z,12.30
2023-01-28T18:49:05.875Z,12.60
2023-01-28T18:51:32.803Z,14.90
2023-01-28T18:54:01.812Z,16.55
2023-01-28T18:56:29.676Z,15.63
2023-01-28T18:59:02.310Z,13.60
2023-01-28T19:01:30.648Z,12.05
2023-01-28T19:03:58.636Z,12.35
2023-01-28T19:06:29.841Z,12.10
2023-01-28T19:08:58.748Z,11.15
2023-01-28T19:11:27.472Z,12.00
2023-01-28T19:13:57.610Z,11.95
2023-01-28T19:16:25.837Z,11.77
2023-01-28T19:18:57.131Z,14.50
2023-01-28T19:21:25.036Z,11.15
2023-01-28T19:24:00.276Z,13.07
2023-01-28T19:26:29.383Z,12.05
2023-01-28T19:28:59.456Z,14.68
2023-01-28T19:31:26.866Z,11.15
2023-01-28T19:33:56.711Z,11.35
2023-01-28T19:36:27.990Z,8.20
2023-01-28T19:39:00.133Z,11.38
2023-01-28T19:41:29.399Z,11.20
2023-01-28T19:43:57.306Z,12.40
2023-01-28T19:46:29.980Z,12.57
2023-01-28T19:48:56.994Z,10.32
2023-01-28T19:51:30.886Z,11.60
2023-01-28T19:53:58.381Z,11.23
2023-01-28T19:56:27.414Z,11.45
2023-01-28T19:58:54.869Z,11.68
2023-01-28T20:01:24.551Z,12.43
2023-01-28T20:03:55.908Z,12.98
2023-01-28T20:06:24.014Z,11.43
2023-01-28T20:09:00.967Z,12.57
2023-01-28T20:11:27.908Z,12.50
2023-01-28T20:13:57.926Z,12.45
2023-01-28T20:16:27.465Z,15.60
2023-01-28T20:19:19.021Z,17.10
2023-01-28T20:21:47.247Z,14.43
2023-01-28T20:24:15.369Z,12.80
2023-01-28T20:26:45.149Z,13.55
2023-01-28T20:29:15.346Z,15.05
2023-01-28T20:31:43.078Z,13.32
2023-01-28T20:34:18.975Z,12.20
2023-01-28T20:36:46.694Z,14.13
2023-01-28T20:39:14.454Z,18.55
2023-01-28T20:41:41.585Z,12.63
2023-01-28T20:44:08.605Z,15.38
2023-01-28T20:46:36.875Z,15.63
2023-01-28T20:49:06.812Z,13.75
2023-01-28T20:51:35.865Z,11.70
2023-01-28T20:54:03.498Z,15.77
2023-01-28T20:56:38.530Z,12.55
2023-01-28T20:59:06.156Z,13.52
2023-01-28T21:01:39.172Z,12.55
2023-01-28T21:04:09.063Z,12.75
2023-01-28T21:06:39.516Z,14.43
2023-01-28T21:09:06.906Z,12.60
2023-01-28T21:11:34.525Z,15.70
2023-01-28T21:14:01.874Z,13.68
2023-01-28T21:16:29.083Z,15.07
2023-01-28T21:18:56.177Z,16.48
2023-01-28T21:21:26.217Z,14.40
2023-01-28T21:23:59.602Z,15.07
2023-01-28T21:26:27.767Z,15.02
2023-01-28T21:28:56.308Z,16.75
2023-01-28T21:31:32.099Z,16.92
2023-01-28T21:34:01.513Z,22.75
2023-01-28T21:36:31.682Z,18.35
2023-01-28T21:39:00.450Z,13.43
2023-01-28T21:41:28.019Z,13.68
2023-01-28T21:43:57.281Z,18.33
2023-01-28T21:46:32.685Z,16.15
2023-01-28T21:49:01.677Z,18.75
2023-01-28T21:51:46.189Z,16.08
2023-01-28T21:54:17.407Z,16.30
2023-01-28T21:56:46.232Z,15.52
2023-01-28T21:59:28.948Z,14.52
2023-01-28T22:02:02.584Z,15.23
2023-01-28T22:04:35.255Z,17.33
2023-01-28T22:07:03.664Z,17.50
2023-01-28T22:09:31.985Z,17.75
2023-01-28T22:11:59.245Z,16.30
2023-01-28T22:14:28.654Z,16.25
2023-01-28T22:16:55.720Z,15.55
2023-01-28T22:19:22.656Z,15.38
2023-01-28T22:21:49.960Z,19.38
2023-01-28T22:24:20.175Z,16.52
2023-01-28T22:26:47.968Z,17.02
2023-01-28T22:29:19.154Z,15.55
2023-01-28T22:31:50.604Z,13.15
2023-01-28T22:34:18.395Z,16.40
2023-01-28T22:36:46.180Z,18.63
2023-01-28T22:39:15.487Z,15.35
2023-01-28T22:41:43.494Z,20.55
2023-01-28T22:44:10.521Z,14.98
2023-01-28T22:46:37.994Z,12.70
2023-01-28T22:49:05.494Z,14.70
2023-01-28T22:51:34.804Z,16.08
2023-01-28T22:54:02.038Z,14.02
2023-01-28T22:56:29.949Z,13.48
2023-01-28T22:58:58.798Z,13.18
2023-01-28T23:01:25.938Z,13.02
2023-01-28T23:03:52.998Z,13.63
2023-01-28T23:06:21.449Z,14.07
2023-01-28T23:08:48.428Z,12.98
2023-01-28T23:11:25.181Z,12.98
2023-01-28T23:14:13.019Z,13.38
2023-01-28T23:16:58.599Z,14.90
2023-01-28T23:19:44.095Z,16.35
2023-01-28T23:22:36.724Z,14.55
2023-01-28T23:25:03.726Z,16.13
2023-01-28T23:27:30.489Z,13.02
2023-01-28T23:29:57.295Z,12.65
2023-01-28T23:32:24.167Z,12.27
2023-01-28T23:34:51.404Z,12.88
2023-01-28T23:37:18.178Z,12.30
2023-01-28T23:39:45.085Z,13.50
2023-01-28T23:42:17.831Z,12.52
2023-01-28T23:47:12.012Z,12.15
2023-01-28T23:49:39.407Z,14.07
2023-01-28T23:52:07.574Z,12.10
2023-01-28T23:54:34.740Z,13.90
2023-01-28T23:57:01.919Z,11.43
2023-01-28T23:59:28.749Z,12.73
